sensor_id;sensor_type;location;lat;lon;timestamp;pressure;altitude;pressure_sealevel;temperature;humidity
23166;BME280;11751;42.700;24.170;2023-03-15T00:01:24;93008.66;;;3.50;72.31
23166;BME280;11751;42.700;24.170;2023-03-15T00:03:51;93003.13;;;3.50;72.72
23166;BME280;11751;42.700;24.170;2023-03-15T00:06:19;93006.78;;;3.45;72.36
23166;BME280;11751;42.700;24.170;2023-03-15T00:08:45;93006.69;;;3.38;72.85
23166;BME280;11751;42.700;24.170;2023-03-15T00:11:12;93010.97;;;3.26;74.05
23166;BME280;11751;42.700;24.170;2023-03-15T00:13:39;93007.94;;;3.04;75.07
23166;BME280;11751;42.700;24.170;2023-03-15T00:16:05;93004.19;;;3.14;74.63
23166;BME280;11751;42.700;24.170;2023-03-15T00:18:30;93010.69;;;3.17;74.54
23166;BME280;11751;42.700;24.170;2023-03-15T00:20:57;93006.00;;;3.12;74.86
23166;BME280;11751;42.700;24.170;2023-03-15T00:23:22;93008.78;;;3.12;74.92
23166;BME280;11751;42.700;24.170;2023-03-15T00:25:50;93007.00;;;3.01;75.66
23166;BME280;11751;42.700;24.170;2023-03-15T00:28:16;92999.66;;;3.04;75.44
23166;BME280;11751;42.700;24.170;2023-03-15T00:30:42;92991.34;;;3.04;74.46
23166;BME280;11751;42.700;24.170;2023-03-15T00:33:09;92987.00;;;2.95;74.72
23166;BME280;11751;42.700;24.170;2023-03-15T00:35:39;92977.16;;;2.87;74.85
23166;BME280;11751;42.700;24.170;2023-03-15T00:38:05;92980.13;;;2.76;75.43
23166;BME280;11751;42.700;24.170;2023-03-15T00:40:30;92975.00;;;2.80;75.09
23166;BME280;11751;42.700;24.170;2023-03-15T00:42:56;92969.31;;;2.78;75.14
23166;BME280;11751;42.700;24.170;2023-03-15T00:45:21;92969.81;;;2.76;74.96
23166;BME280;11751;42.700;24.170;2023-03-15T00:47:51;92969.31;;;2.65;75.85
23166;BME280;11751;42.700;24.170;2023-03-15T00:50:18;92958.38;;;2.72;75.37
23166;BME280;11751;42.700;24.170;2023-03-15T00:52:43;92959.53;;;2.64;75.51
23166;BME280;11751;42.700;24.170;2023-03-15T00:55:10;92950.19;;;2.67;74.97
23166;BME280;11751;42.700;24.170;2023-03-15T00:57:41;92955.06;;;2.74;75.13
23166;BME280;11751;42.700;24.170;2023-03-15T01:00:09;92958.03;;;2.63;76.39
23166;BME280;11751;42.700;24.170;2023-03-15T01:02:36;92957.00;;;2.66;75.58
23166;BME280;11751;42.700;24.170;2023-03-15T01:05:03;92956.13;;;2.71;74.85
23166;BME280;11751;42.700;24.170;2023-03-15T01:07:31;92948.25;;;2.62;74.92
23166;BME280;11751;42.700;24.170;2023-03-15T01:09:58;92942.34;;;2.58;75.31
23166;BME280;11751;42.700;24.170;2023-03-15T01:12:23;92950.81;;;2.60;75.63
23166;BME280;11751;42.700;24.170;2023-03-15T01:14:49;92950.41;;;2.56;75.71
23166;BME280;11751;42.700;24.170;2023-03-15T01:17:14;92928.09;;;2.41;76.26
23166;BME280;11751;42.700;24.170;2023-03-15T01:19:40;92931.41;;;2.40;76.63
23166;BME280;11751;42.700;24.170;2023-03-15T01:22:05;92932.13;;;2.40;76.83
23166;BME280;11751;42.700;24.170;2023-03-15T01:24:31;92924.72;;;2.35;76.61
23166;BME280;11751;42.700;24.170;2023-03-15T01:26:56;92922.16;;;2.24;76.52
23166;BME280;11751;42.700;24.170;2023-03-15T01:29:21;92927.91;;;2.26;76.55
23166;BME280;11751;42.700;24.170;2023-03-15T01:31:47;92919.00;;;2.20;76.42
23166;BME280;11751;42.700;24.170;2023-03-15T01:34:12;92906.25;;;2.04;76.80
23166;BME280;11751;42.700;24.170;2023-03-15T01:36:37;92909.34;;;2.14;76.76
23166;BME280;11751;42.700;24.170;2023-03-15T01:39:03;92902.66;;;2.09;76.95
23166;BME280;11751;42.700;24.170;2023-03-15T01:41:28;92903.91;;;1.95;77.60
23166;BME280;11751;42.700;24.170;2023-03-15T01:43:54;92908.69;;;2.08;77.43
23166;BME280;11751;42.700;24.170;2023-03-15T01:46:27;92899.25;;;1.90;77.80
23166;BME280;11751;42.700;24.170;2023-03-15T01:51:25;92900.06;;;2.11;76.88
23166;BME280;11751;42.700;24.170;2023-03-15T01:54:14;92896.47;;;2.16;76.97
23166;BME280;11751;42.700;24.170;2023-03-15T01:56:49;92888.84;;;2.09;77.01
23166;BME280;11751;42.700;24.170;2023-03-15T01:59:20;92894.56;;;2.11;76.88
23166;BME280;11751;42.700;24.170;2023-03-15T02:01:47;92895.00;;;1.89;77.50
23166;BME280;11751;42.700;24.170;2023-03-15T02:04:17;92894.78;;;1.87;77.28
23166;BME280;11751;42.700;24.170;2023-03-15T02:06:49;92897.13;;;1.96;77.14
23166;BME280;11751;42.700;24.170;2023-03-15T02:09:33;92890.00;;;2.01;76.70
23166;BME280;11751;42.700;24.170;2023-03-15T02:12:00;92889.28;;;2.00;76.42
23166;BME280;11751;42.700;24.170;2023-03-15T02:14:26;92882.66;;;2.03;76.26
23166;BME280;11751;42.700;24.170;2023-03-15T02:16:53;92885.66;;;2.05;76.63
23166;BME280;11751;42.700;24.170;2023-03-15T02:27:29;92895.19;;;2.04;77.12
23166;BME280;11751;42.700;24.170;2023-03-15T02:29:56;92894.56;;;1.98;77.41
23166;BME280;11751;42.700;24.170;2023-03-15T02:32:22;92885.66;;;2.05;77.73
23166;BME280;11751;42.700;24.170;2023-03-15T02:34:47;92874.50;;;1.98;77.50
23166;BME280;11751;42.700;24.170;2023-03-15T02:37:12;92883.31;;;1.96;78.41
23166;BME280;11751;42.700;24.170;2023-03-15T02:39:38;92880.13;;;1.92;78.32
23166;BME280;11751;42.700;24.170;2023-03-15T02:42:03;92874.41;;;1.90;78.07
23166;BME280;11751;42.700;24.170;2023-03-15T02:44:32;92887.34;;;1.95;77.56
23166;BME280;11751;42.700;24.170;2023-03-15T02:47:05;92890.53;;;1.86;77.45
23166;BME280;11751;42.700;24.170;2023-03-15T02:49:35;92881.91;;;1.77;77.83
23166;BME280;11751;42.700;24.170;2023-03-15T02:52:02;92889.69;;;1.78;77.84
23166;BME280;11751;42.700;24.170;2023-03-15T02:54:27;92877.16;;;1.77;77.86
23166;BME280;11751;42.700;24.170;2023-03-15T02:56:52;92875.66;;;1.76;77.32
23166;BME280;11751;42.700;24.170;2023-03-15T02:59:18;92869.72;;;1.72;77.59
23166;BME280;11751;42.700;24.170;2023-03-15T03:01:43;92869.72;;;1.72;77.92
23166;BME280;11751;42.700;24.170;2023-03-15T03:04:10;92867.81;;;1.67;78.15
23166;BME280;11751;42.700;24.170;2023-03-15T03:06:35;92876.09;;;1.67;78.57
23166;BME280;11751;42.700;24.170;2023-03-15T03:09:01;92860.16;;;1.73;78.49
23166;BME280;11751;42.700;24.170;2023-03-15T03:11:27;92849.44;;;1.70;78.96
23166;BME280;11751;42.700;24.170;2023-03-15T03:13:52;92838.41;;;1.70;79.31
23166;BME280;11751;42.700;24.170;2023-03-15T03:16:18;92834.72;;;1.67;79.25
23166;BME280;11751;42.700;24.170;2023-03-15T03:18:43;92839.06;;;1.76;78.70
23166;BME280;11751;42.700;24.170;2023-03-15T03:21:09;92833.41;;;1.81;78.78
23166;BME280;11751;42.700;24.170;2023-03-15T03:23:35;92831.84;;;1.86;77.80
23166;BME280;11751;42.700;24.170;2023-03-15T03:26:00;92831.97;;;1.80;77.70
23166;BME280;11751;42.700;24.170;2023-03-15T03:28:28;92831.19;;;1.80;77.84
23166;BME280;11751;42.700;24.170;2023-03-15T03:30:55;92834.91;;;1.82;77.75
23166;BME280;11751;42.700;24.170;2023-03-15T03:33:21;92837.88;;;1.97;77.37
23166;BME280;11751;42.700;24.170;2023-03-15T03:35:47;92831.41;;;1.95;77.28
23166;BME280;11751;42.700;24.170;2023-03-15T03:38:13;92822.38;;;1.81;77.68
23166;BME280;11751;42.700;24.170;2023-03-15T03:40:39;92819.63;;;1.81;77.35
23166;BME280;11751;42.700;24.170;2023-03-15T03:43:05;92812.28;;;1.97;76.90
23166;BME280;11751;42.700;24.170;2023-03-15T03:45:31;92816.88;;;1.94;76.82
23166;BME280;11751;42.700;24.170;2023-03-15T03:47:57;92819.63;;;1.94;76.69
23166;BME280;11751;42.700;24.170;2023-03-15T03:50:22;92819.84;;;2.09;76.94
23166;BME280;11751;42.700;24.170;2023-03-15T03:52:48;92821.38;;;2.18;76.98
23166;BME280;11751;42.700;24.170;2023-03-15T03:55:13;92815.13;;;2.17;76.78
23166;BME280;11751;42.700;24.170;2023-03-15T03:57:40;92836.56;;;2.24;76.31
23166;BME280;11751;42.700;24.170;2023-03-15T04:00:07;92823.38;;;2.30;76.65
23166;BME280;11751;42.700;24.170;2023-03-15T04:02:34;92826.28;;;2.25;76.41
23166;BME280;11751;42.700;24.170;2023-03-15T04:04:59;92822.22;;;2.26;76.48
23166;BME280;11751;42.700;24.170;2023-03-15T04:07:25;92823.19;;;2.28;76.48
23166;BME280;11751;42.700;24.170;2023-03-15T04:09:50;92820.44;;;2.28;76.17
23166;BME280;11751;42.700;24.170;2023-03-15T04:12:16;92797.19;;;2.24;76.23
23166;BME280;11751;42.700;24.170;2023-03-15T04:14:41;92807.91;;;2.27;76.64
23166;BME280;11751;42.700;24.170;2023-03-15T04:17:07;92801.28;;;2.30;76.65
23166;BME280;11751;42.700;24.170;2023-03-15T04:19:33;92800.22;;;2.33;76.79
23166;BME280;11751;42.700;24.170;2023-03-15T04:21:58;92791.41;;;2.35;76.76
23166;BME280;11751;42.700;24.170;2023-03-15T04:24:32;92778.13;;;2.33;77.00
23166;BME280;11751;42.700;24.170;2023-03-15T04:26:57;92777.78;;;2.37;76.53
23166;BME280;11751;42.700;24.170;2023-03-15T04:29:23;92776.25;;;2.28;75.84
23166;BME280;11751;42.700;24.170;2023-03-15T04:31:48;92777.53;;;2.27;76.04
23166;BME280;11751;42.700;24.170;2023-03-15T04:34:13;92765.38;;;2.30;75.88
23166;BME280;11751;42.700;24.170;2023-03-15T04:36:39;92768.47;;;2.27;76.78
23166;BME280;11751;42.700;24.170;2023-03-15T04:39:06;92777.06;;;2.36;76.71
23166;BME280;11751;42.700;24.170;2023-03-15T04:41:33;92789.19;;;2.33;76.26
23166;BME280;11751;42.700;24.170;2023-03-15T04:44:03;92787.16;;;2.34;76.69
23166;BME280;11751;42.700;24.170;2023-03-15T04:46:32;92790.66;;;2.34;77.01
23166;BME280;11751;42.700;24.170;2023-03-15T04:48:58;92797.50;;;2.20;78.03
23166;BME280;11751;42.700;24.170;2023-03-15T04:51:23;92800.53;;;1.96;78.70
23166;BME280;11751;42.700;24.170;2023-03-15T04:53:49;92801.78;;;1.82;79.34
23166;BME280;11751;42.700;24.170;2023-03-15T04:56:15;92795.88;;;1.78;80.10
23166;BME280;11751;42.700;24.170;2023-03-15T04:58:40;92793.94;;;1.86;79.62
23166;BME280;11751;42.700;24.170;2023-03-15T05:01:06;92794.56;;;1.92;79.43
23166;BME280;11751;42.700;24.170;2023-03-15T05:03:31;92802.41;;;2.01;79.16
23166;BME280;11751;42.700;24.170;2023-03-15T05:05:57;92803.78;;;2.08;78.72
23166;BME280;11751;42.700;24.170;2023-03-15T05:08:22;92804.66;;;2.03;79.62
23166;BME280;11751;42.700;24.170;2023-03-15T05:10:47;92804.50;;;2.21;78.79
23166;BME280;11751;42.700;24.170;2023-03-15T05:13:13;92806.41;;;2.26;78.18
23166;BME280;11751;42.700;24.170;2023-03-15T05:15:38;92814.25;;;2.22;77.98
23166;BME280;11751;42.700;24.170;2023-03-15T05:18:04;92795.81;;;2.17;78.58
23166;BME280;11751;42.700;24.170;2023-03-15T05:20:30;92796.03;;;2.19;78.24
23166;BME280;11751;42.700;24.170;2023-03-15T05:22:56;92801.72;;;2.21;78.13
23166;BME280;11751;42.700;24.170;2023-03-15T05:25:21;92807.81;;;2.20;78.12
23166;BME280;11751;42.700;24.170;2023-03-15T05:27:48;92804.63;;;2.16;78.19
23166;BME280;11751;42.700;24.170;2023-03-15T05:30:14;92805.59;;;2.18;78.19
23166;BME280;11751;42.700;24.170;2023-03-15T05:32:42;92797.84;;;2.04;78.75
23166;BME280;11751;42.700;24.170;2023-03-15T05:35:09;92792.41;;;2.11;78.47
23166;BME280;11751;42.700;24.170;2023-03-15T05:37:35;92779.84;;;2.23;78.16
23166;BME280;11751;42.700;24.170;2023-03-15T05:40:01;92779.81;;;2.36;77.92
23166;BME280;11751;42.700;24.170;2023-03-15T05:42:27;92770.78;;;2.36;77.83
23166;BME280;11751;42.700;24.170;2023-03-15T05:44:54;92771.28;;;2.47;77.76
23166;BME280;11751;42.700;24.170;2023-03-15T05:47:19;92766.59;;;2.55;77.61
23166;BME280;11751;42.700;24.170;2023-03-15T05:49:45;92759.53;;;2.67;77.79
23166;BME280;11751;42.700;24.170;2023-03-15T05:52:11;92774.94;;;2.83;77.05
23166;BME280;11751;42.700;24.170;2023-03-15T05:54:36;92784.53;;;3.02;76.80
23166;BME280;11751;42.700;24.170;2023-03-15T05:57:02;92791.38;;;3.09;76.26
23166;BME280;11751;42.700;24.170;2023-03-15T05:59:27;92788.56;;;3.22;75.39
23166;BME280;11751;42.700;24.170;2023-03-15T06:01:53;92788.63;;;3.29;75.92
23166;BME280;11751;42.700;24.170;2023-03-15T06:04:18;92785.59;;;3.20;76.35
23166;BME280;11751;42.700;24.170;2023-03-15T06:06:44;92769.19;;;3.22;76.47
23166;BME280;11751;42.700;24.170;2023-03-15T06:09:09;92774.66;;;3.35;75.99
23166;BME280;11751;42.700;24.170;2023-03-15T06:11:35;92770.91;;;3.25;75.92
23166;BME280;11751;42.700;24.170;2023-03-15T06:14:00;92772.69;;;3.42;75.75
23166;BME280;11751;42.700;24.170;2023-03-15T06:16:26;92763.69;;;3.49;75.48
23166;BME280;11751;42.700;24.170;2023-03-15T06:18:51;92764.13;;;3.61;75.05
23166;BME280;11751;42.700;24.170;2023-03-15T06:21:17;92757.91;;;3.68;74.94
23166;BME280;11751;42.700;24.170;2023-03-15T06:23:42;92762.06;;;3.82;74.30
23166;BME280;11751;42.700;24.170;2023-03-15T06:26:07;92763.59;;;3.98;73.51
23166;BME280;11751;42.700;24.170;2023-03-15T06:28:33;92759.59;;;4.14;72.24
23166;BME280;11751;42.700;24.170;2023-03-15T06:31:05;92745.59;;;4.19;71.59
23166;BME280;11751;42.700;24.170;2023-03-15T06:33:31;92739.69;;;4.22;70.94
23166;BME280;11751;42.700;24.170;2023-03-15T06:35:56;92747.88;;;4.35;70.69
23166;BME280;11751;42.700;24.170;2023-03-15T06:38:22;92752.38;;;4.61;70.01
23166;BME280;11751;42.700;24.170;2023-03-15T06:40:47;92756.84;;;4.79;68.76
23166;BME280;11751;42.700;24.170;2023-03-15T06:43:12;92750.22;;;5.04;67.81
23166;BME280;11751;42.700;24.170;2023-03-15T06:45:44;92747.25;;;5.24;66.95
23166;BME280;11751;42.700;24.170;2023-03-15T06:48:12;92750.97;;;5.19;64.86
23166;BME280;11751;42.700;24.170;2023-03-15T06:50:37;92745.97;;;5.40;65.18
23166;BME280;11751;42.700;24.170;2023-03-15T06:53:03;92741.31;;;5.65;63.89
23166;BME280;11751;42.700;24.170;2023-03-15T06:55:28;92741.31;;;5.73;62.82
23166;BME280;11751;42.700;24.170;2023-03-15T06:57:54;92755.75;;;5.71;61.49
23166;BME280;11751;42.700;24.170;2023-03-15T07:00:19;92753.53;;;5.92;61.58
23166;BME280;11751;42.700;24.170;2023-03-15T07:02:45;92754.25;;;5.93;62.33
23166;BME280;11751;42.700;24.170;2023-03-15T07:05:10;92763.47;;;6.10;62.52
23166;BME280;11751;42.700;24.170;2023-03-15T07:07:36;92749.00;;;6.19;62.57
23166;BME280;11751;42.700;24.170;2023-03-15T07:10:01;92769.84;;;6.42;61.99
23166;BME280;11751;42.700;24.170;2023-03-15T07:12:28;92771.22;;;6.66;62.53
23166;BME280;11751;42.700;24.170;2023-03-15T07:14:54;92766.00;;;7.01;62.29
23166;BME280;11751;42.700;24.170;2023-03-15T07:17:19;92763.75;;;7.07;62.02
23166;BME280;11751;42.700;24.170;2023-03-15T07:19:44;92756.59;;;7.21;60.95
23166;BME280;11751;42.700;24.170;2023-03-15T07:22:10;92759.09;;;7.34;61.84
23166;BME280;11751;42.700;24.170;2023-03-15T07:24:35;92757.97;;;7.37;60.32
23166;BME280;11751;42.700;24.170;2023-03-15T07:27:00;92764.44;;;7.40;59.01
23166;BME280;11751;42.700;24.170;2023-03-15T07:29:26;92767.47;;;7.34;58.34
23166;BME280;11751;42.700;24.170;2023-03-15T07:31:51;92755.13;;;7.45;57.73
23166;BME280;11751;42.700;24.170;2023-03-15T07:34:17;92749.66;;;7.54;58.57
23166;BME280;11751;42.700;24.170;2023-03-15T07:36:43;92751.00;;;7.70;58.69
23166;BME280;11751;42.700;24.170;2023-03-15T07:39:08;92746.91;;;7.71;58.04
23166;BME280;11751;42.700;24.170;2023-03-15T07:41:34;92749.25;;;7.99;57.69
23166;BME280;11751;42.700;24.170;2023-03-15T07:44:00;92735.66;;;8.20;57.45
23166;BME280;11751;42.700;24.170;2023-03-15T07:46:25;92721.31;;;8.40;56.61
23166;BME280;11751;42.700;24.170;2023-03-15T07:48:51;92727.69;;;8.33;56.03
23166;BME280;11751;42.700;24.170;2023-03-15T07:51:16;92739.56;;;8.00;56.48
23166;BME280;11751;42.700;24.170;2023-03-15T07:53:41;92717.06;;;8.22;55.73
23166;BME280;11751;42.700;24.170;2023-03-15T07:56:07;92720.97;;;8.36;55.46
23166;BME280;11751;42.700;24.170;2023-03-15T07:58:32;92723.50;;;8.58;54.90
23166;BME280;11751;42.700;24.170;2023-03-15T08:00:58;92722.72;;;8.75;55.03
23166;BME280;11751;42.700;24.170;2023-03-15T08:03:23;92728.25;;;8.65;55.70
23166;BME280;11751;42.700;24.170;2023-03-15T08:05:51;92706.78;;;8.85;55.30
23166;BME280;11751;42.700;24.170;2023-03-15T08:08:16;92708.97;;;8.86;54.25
23166;BME280;11751;42.700;24.170;2023-03-15T08:10:44;92717.56;;;8.98;54.71
23166;BME280;11751;42.700;24.170;2023-03-15T08:13:10;92709.38;;;9.00;54.90
23166;BME280;11751;42.700;24.170;2023-03-15T08:15:35;92709.41;;;9.09;54.16
23166;BME280;11751;42.700;24.170;2023-03-15T08:18:01;92714.41;;;8.84;54.25
23166;BME280;11751;42.700;24.170;2023-03-15T08:20:27;92728.00;;;8.97;54.71
23166;BME280;11751;42.700;24.170;2023-03-15T08:22:52;92736.69;;;9.01;54.92
23166;BME280;11751;42.700;24.170;2023-03-15T08:25:21;92730.41;;;9.10;53.20
23166;BME280;11751;42.700;24.170;2023-03-15T08:27:49;92710.78;;;9.27;51.93
23166;BME280;11751;42.700;24.170;2023-03-15T08:30:16;92714.38;;;9.37;52.57
23166;BME280;11751;42.700;24.170;2023-03-15T08:32:44;92714.56;;;8.86;53.38
23166;BME280;11751;42.700;24.170;2023-03-15T08:35:11;92708.78;;;9.37;53.28
23166;BME280;11751;42.700;24.170;2023-03-15T08:37:37;92701.84;;;9.74;52.66
23166;BME280;11751;42.700;24.170;2023-03-15T08:40:03;92683.03;;;9.93;50.60
23166;BME280;11751;42.700;24.170;2023-03-15T08:42:34;92675.97;;;9.83;50.29
23166;BME280;11751;42.700;24.170;2023-03-15T08:45:00;92667.19;;;10.15;49.98
23166;BME280;11751;42.700;24.170;2023-03-15T08:47:26;92652.63;;;10.35;46.93
23166;BME280;11751;42.700;24.170;2023-03-15T08:49:52;92650.16;;;10.88;47.62
23166;BME280;11751;42.700;24.170;2023-03-15T08:52:20;92647.00;;;11.03;45.93
23166;BME280;11751;42.700;24.170;2023-03-15T08:54:47;92633.97;;;10.77;45.55
23166;BME280;11751;42.700;24.170;2023-03-15T08:57:13;92651.56;;;11.08;46.16
23166;BME280;11751;42.700;24.170;2023-03-15T08:59:38;92646.22;;;11.21;47.41
23166;BME280;11751;42.700;24.170;2023-03-15T09:02:04;92650.63;;;11.24;47.61
23166;BME280;11751;42.700;24.170;2023-03-15T09:04:30;92654.78;;;11.54;46.56
23166;BME280;11751;42.700;24.170;2023-03-15T09:06:57;92648.50;;;11.95;45.25
23166;BME280;11751;42.700;24.170;2023-03-15T09:09:22;92648.63;;;11.76;45.84
23166;BME280;11751;42.700;24.170;2023-03-15T09:11:48;92651.38;;;11.86;45.04
23166;BME280;11751;42.700;24.170;2023-03-15T09:14:14;92653.91;;;11.82;45.65
23166;BME280;11751;42.700;24.170;2023-03-15T09:16:39;92649.78;;;12.03;46.77
23166;BME280;11751;42.700;24.170;2023-03-15T09:19:04;92652.84;;;12.07;45.70
23166;BME280;11751;42.700;24.170;2023-03-15T09:21:30;92649.81;;;12.15;44.48
23166;BME280;11751;42.700;24.170;2023-03-15T09:23:56;92666.22;;;12.18;44.99
23166;BME280;11751;42.700;24.170;2023-03-15T09:26:21;92657.66;;;12.37;44.89
23166;BME280;11751;42.700;24.170;2023-03-15T09:28:47;92659.72;;;12.69;45.52
23166;BME280;11751;42.700;24.170;2023-03-15T09:31:13;92652.53;;;12.66;44.48
23166;BME280;11751;42.700;24.170;2023-03-15T09:33:38;92657.94;;;12.85;43.91
23166;BME280;11751;42.700;24.170;2023-03-15T09:36:04;92661.94;;;13.03;44.25
23166;BME280;11751;42.700;24.170;2023-03-15T09:38:30;92666.06;;;12.90;42.23
23166;BME280;11751;42.700;24.170;2023-03-15T09:40:57;92658.34;;;12.59;43.43
23166;BME280;11751;42.700;24.170;2023-03-15T09:46:26;92660.34;;;12.79;45.21
23166;BME280;11751;42.700;24.170;2023-03-15T09:56:55;92649.72;;;13.10;42.92
23166;BME280;11751;42.700;24.170;2023-03-15T09:59:29;92646.78;;;13.08;44.06
23166;BME280;11751;42.700;24.170;2023-03-15T10:01:57;92646.31;;;13.11;43.99
23166;BME280;11751;42.700;24.170;2023-03-15T10:04:32;92644.09;;;12.98;42.66
23166;BME280;11751;42.700;24.170;2023-03-15T10:07:10;92643.25;;;12.75;44.44
23166;BME280;11751;42.700;24.170;2023-03-15T10:09:36;92640.03;;;12.90;44.38
23166;BME280;11751;42.700;24.170;2023-03-15T10:12:14;92648.44;;;12.90;45.04
23166;BME280;11751;42.700;24.170;2023-03-15T10:20:28;92651.88;;;12.88;46.45
23166;BME280;11751;42.700;24.170;2023-03-15T10:23:05;92636.81;;;12.84;46.52
23166;BME280;11751;42.700;24.170;2023-03-15T10:25:33;92633.34;;;12.95;46.49
23166;BME280;11751;42.700;24.170;2023-03-15T10:28:11;92628.59;;;12.65;48.69
23166;BME280;11751;42.700;24.170;2023-03-15T10:30:41;92628.06;;;12.57;47.35
23166;BME280;11751;42.700;24.170;2023-03-15T10:33:29;92631.72;;;12.60;47.87
23166;BME280;11751;42.700;24.170;2023-03-15T10:35:56;92634.44;;;12.69;48.24
23166;BME280;11751;42.700;24.170;2023-03-15T10:38:24;92624.25;;;12.85;48.23
23166;BME280;11751;42.700;24.170;2023-03-15T10:40:54;92628.38;;;12.84;47.66
23166;BME280;11751;42.700;24.170;2023-03-15T10:46:02;92615.00;;;12.94;47.52
23166;BME280;11751;42.700;24.170;2023-03-15T10:48:38;92608.44;;;13.24;45.99
23166;BME280;11751;42.700;24.170;2023-03-15T10:53:30;92597.19;;;13.01;46.31
23166;BME280;11751;42.700;24.170;2023-03-15T10:55:59;92597.03;;;12.99;46.66
23166;BME280;11751;42.700;24.170;2023-03-15T10:58:39;92601.22;;;13.21;47.40
23166;BME280;11751;42.700;24.170;2023-03-15T11:01:06;92602.59;;;13.43;45.84
23166;BME280;11751;42.700;24.170;2023-03-15T11:03:35;92606.34;;;13.81;44.95
23166;BME280;11751;42.700;24.170;2023-03-15T11:06:01;92602.81;;;13.69;44.49
23166;BME280;11751;42.700;24.170;2023-03-15T11:08:39;92597.44;;;13.62;45.49
23166;BME280;11751;42.700;24.170;2023-03-15T11:11:05;92605.28;;;13.64;45.50
23166;BME280;11751;42.700;24.170;2023-03-15T11:13:33;92596.72;;;13.39;45.24
23166;BME280;11751;42.700;24.170;2023-03-15T11:16:01;92598.53;;;13.23;45.15
23166;BME280;11751;42.700;24.170;2023-03-15T11:18:35;92601.25;;;13.44;45.30
23166;BME280;11751;42.700;24.170;2023-03-15T11:21:05;92595.25;;;13.61;44.70
23166;BME280;11751;42.700;24.170;2023-03-15T11:23:36;92596.44;;;13.80;44.51
23166;BME280;11751;42.700;24.170;2023-03-15T11:26:02;92584.91;;;13.99;44.62
23166;BME280;11751;42.700;24.170;2023-03-15T11:28:31;92583.09;;;13.81;44.67
23166;BME280;11751;42.700;24.170;2023-03-15T11:30:58;92581.53;;;13.66;45.01
23166;BME280;11751;42.700;24.170;2023-03-15T11:33:37;92581.03;;;13.81;45.07
23166;BME280;11751;42.700;24.170;2023-03-15T11:36:09;92573.69;;;13.88;45.02
23166;BME280;11751;42.700;24.170;2023-03-15T11:38:40;92580.88;;;14.02;45.46
23166;BME280;11751;42.700;24.170;2023-03-15T11:41:27;92580.06;;;13.77;44.96
23166;BME280;11751;42.700;24.170;2023-03-15T11:46:46;92583.09;;;13.92;44.83
23166;BME280;11751;42.700;24.170;2023-03-15T11:49:16;92577.09;;;13.98;44.17
23166;BME280;11751;42.700;24.170;2023-03-15T11:51:43;92578.56;;;13.99;45.45
23166;BME280;11751;42.700;24.170;2023-03-15T11:54:28;92579.38;;;14.13;43.97
23166;BME280;11751;42.700;24.170;2023-03-15T11:57:02;92575.34;;;14.16;44.72
23166;BME280;11751;42.700;24.170;2023-03-15T11:59:31;92571.16;;;14.05;44.30
23166;BME280;11751;42.700;24.170;2023-03-15T12:02:00;92575.22;;;14.02;44.70
23166;BME280;11751;42.700;24.170;2023-03-15T12:07:03;92565.53;;;13.69;45.72
23166;BME280;11751;42.700;24.170;2023-03-15T12:17:56;92563.00;;;13.16;47.71
23166;BME280;11751;42.700;24.170;2023-03-15T12:20:41;92568.34;;;13.12;47.65
23166;BME280;11751;42.700;24.170;2023-03-15T12:28:25;92574.47;;;12.97;48.97
23166;BME280;11751;42.700;24.170;2023-03-15T12:30:57;92567.13;;;12.92;48.35
23166;BME280;11751;42.700;24.170;2023-03-15T12:33:24;92579.22;;;12.51;48.15
23166;BME280;11751;42.700;24.170;2023-03-15T12:35:58;92574.84;;;12.59;49.70
23166;BME280;11751;42.700;24.170;2023-03-15T12:38:34;92579.69;;;12.47;49.59
23166;BME280;11751;42.700;24.170;2023-03-15T12:41:06;92581.16;;;12.48;49.51
23166;BME280;11751;42.700;24.170;2023-03-15T12:46:06;92583.63;;;12.00;50.90
23166;BME280;11751;42.700;24.170;2023-03-15T12:49:27;92579.50;;;11.81;51.70
23166;BME280;11751;42.700;24.170;2023-03-15T12:51:56;92583.66;;;11.59;52.17
23166;BME280;11751;42.700;24.170;2023-03-15T12:54:24;92582.41;;;11.41;52.70
23166;BME280;11751;42.700;24.170;2023-03-15T12:56:56;92593.22;;;11.35;53.06
23166;BME280;11751;42.700;24.170;2023-03-15T12:59:30;92570.72;;;11.23;53.44
23166;BME280;11751;42.700;24.170;2023-03-15T13:01:58;92574.84;;;11.22;53.54
23166;BME280;11751;42.700;24.170;2023-03-15T13:04:26;92576.88;;;11.01;54.04
23166;BME280;11751;42.700;24.170;2023-03-15T13:07:09;92584.66;;;11.03;54.29
23166;BME280;11751;42.700;24.170;2023-03-15T13:12:48;92583.00;;;10.79;55.21
23166;BME280;11751;42.700;24.170;2023-03-15T13:15:21;92587.88;;;10.69;55.85
23166;BME280;11751;42.700;24.170;2023-03-15T13:17:56;92587.91;;;10.59;56.50
23166;BME280;11751;42.700;24.170;2023-03-15T13:20:39;92585.16;;;10.40;57.18
23166;BME280;11751;42.700;24.170;2023-03-15T13:23:15;92589.47;;;10.23;58.46
23166;BME280;11751;42.700;24.170;2023-03-15T13:28:23;92587.41;;;10.32;59.87
23166;BME280;11751;42.700;24.170;2023-03-15T13:30:54;92589.28;;;10.39;59.89
23166;BME280;11751;42.700;24.170;2023-03-15T13:33:25;92594.16;;;10.29;60.65
23166;BME280;11751;42.700;24.170;2023-03-15T13:36:04;92595.47;;;10.38;60.33
23166;BME280;11751;42.700;24.170;2023-03-15T13:38:40;92584.84;;;10.55;60.09
23166;BME280;11751;42.700;24.170;2023-03-15T13:41:24;92589.09;;;10.56;59.91
23166;BME280;11751;42.700;24.170;2023-03-15T13:43:52;92591.47;;;10.50;60.49
23166;BME280;11751;42.700;24.170;2023-03-15T13:46:19;92597.34;;;10.54;61.36
23166;BME280;11751;42.700;24.170;2023-03-15T13:48:47;92590.72;;;10.50;61.80
23166;BME280;11751;42.700;24.170;2023-03-15T13:53:56;92585.28;;;10.61;61.74
23166;BME280;11751;42.700;24.170;2023-03-15T13:56:30;92584.06;;;10.64;61.48
23166;BME280;11751;42.700;24.170;2023-03-15T13:58:56;92580.22;;;10.69;61.47
23166;BME280;11751;42.700;24.170;2023-03-15T14:01:23;92581.00;;;10.60;62.37
23166;BME280;11751;42.700;24.170;2023-03-15T14:03:59;92580.16;;;10.88;62.05